createdAt,value
2022-11-17T00:00:47.521Z,4.68
2022-11-17T00:03:16.142Z,4.66
2022-11-17T00:05:44.507Z,4.65
2022-11-17T00:08:12.944Z,4.64
2022-11-17T00:10:42.459Z,4.63
2022-11-17T00:13:29.009Z,4.64
2022-11-17T00:15:57.139Z,4.65
2022-11-17T00:18:42.665Z,4.65
2022-11-17T00:21:23.703Z,4.66
2022-11-17T00:23:52.005Z,4.70
2022-11-17T00:26:23.027Z,4.71
2022-11-17T00:28:53.513Z,4.75
2022-11-17T00:31:39.896Z,4.76
2022-11-17T00:34:08.678Z,4.79
2022-11-17T00:36:39.390Z,4.79
2022-11-17T00:39:07.857Z,4.81
2022-11-17T00:41:37.379Z,4.83
2022-11-17T00:44:06.364Z,4.84
2022-11-17T00:46:35.020Z,4.83
2022-11-17T00:49:03.200Z,4.83
2022-11-17T00:51:31.340Z,4.84
2022-11-17T00:53:59.614Z,4.84
2022-11-17T00:56:28.054Z,4.85
2022-11-17T00:58:57.580Z,4.83
2022-11-17T01:01:30.028Z,4.81
2022-11-17T01:04:04.158Z,4.81
2022-11-17T01:06:37.080Z,4.80
2022-11-17T01:09:07.865Z,4.79
2022-11-17T01:11:35.957Z,4.79
2022-11-17T01:14:05.510Z,4.77
2022-11-17T01:16:34.344Z,4.72
2022-11-17T01:19:03.755Z,4.70
2022-11-17T01:21:33.175Z,4.69
2022-11-17T01:24:02.511Z,4.65
2022-11-17T01:26:32.684Z,4.62
2022-11-17T01:29:01.377Z,4.62
2022-11-17T01:31:32.576Z,4.60
2022-11-17T01:34:01.425Z,4.60
2022-11-17T01:36:51.662Z,4.59
2022-11-17T01:39:19.800Z,4.57
2022-11-17T01:41:48.007Z,4.54
2022-11-17T01:45:07.617Z,4.51
2022-11-17T01:47:42.518Z,4.49
2022-11-17T01:50:17.551Z,4.46
2022-11-17T01:52:45.875Z,4.43
2022-11-17T01:55:14.180Z,4.41
2022-11-17T01:57:44.315Z,4.41
2022-11-17T02:00:16.101Z,4.39
2022-11-17T02:02:46.444Z,4.38
2022-11-17T02:05:23.746Z,4.33
2022-11-17T02:07:55.019Z,4.34
2022-11-17T02:10:23.168Z,4.32
2022-11-17T02:12:54.426Z,4.29
2022-11-17T02:15:23.381Z,4.27
2022-11-17T02:17:54.216Z,4.23
2022-11-17T02:20:30.479Z,4.19
2022-11-17T02:23:34.298Z,4.16
2022-11-17T02:26:18.638Z,4.14
2022-11-17T02:28:49.986Z,4.09
2022-11-17T02:31:23.883Z,4.07
2022-11-17T02:33:56.714Z,4.06
2022-11-17T02:36:33.015Z,4.03
2022-11-17T02:39:06.563Z,4.00
2022-11-17T02:41:39.548Z,3.98
2022-11-17T02:44:11.222Z,3.96
2022-11-17T02:46:45.247Z,3.94
2022-11-17T02:49:19.783Z,3.92
2022-11-17T02:51:51.252Z,3.94
2022-11-17T02:54:20.188Z,3.90
2022-11-17T02:56:48.306Z,3.88
2022-11-17T02:59:19.920Z,3.86
2022-11-17T03:02:09.975Z,3.83
2022-11-17T03:04:44.985Z,3.82
2022-11-17T03:07:23.570Z,3.83
2022-11-17T03:09:59.025Z,3.79
2022-11-17T03:12:32.809Z,3.76
2022-11-17T03:15:07.149Z,3.75
2022-11-17T03:17:41.295Z,3.75
2022-11-17T03:20:14.155Z,3.72
2022-11-17T03:22:44.962Z,3.72
2022-11-17T03:25:16.197Z,3.71
2022-11-17T03:27:46.928Z,3.71
2022-11-17T03:30:18.044Z,3.69
2022-11-17T03:32:50.612Z,3.67
2022-11-17T03:35:21.810Z,3.67
2022-11-17T03:37:52.906Z,3.65
2022-11-17T03:40:23.498Z,3.64
2022-11-17T03:42:54.157Z,3.65
2022-11-17T03:45:25.963Z,3.64
2022-11-17T03:47:58.635Z,3.64
2022-11-17T03:50:31.821Z,3.66
2022-11-17T03:53:00.554Z,3.64
2022-11-17T03:55:34.049Z,3.66
2022-11-17T03:58:06.186Z,3.67
2022-11-17T04:00:36.284Z,3.64
2022-11-17T04:03:04.428Z,3.61
2022-11-17T04:05:32.587Z,3.58
2022-11-17T04:08:00.744Z,3.53
2022-11-17T04:10:28.887Z,3.51
2022-11-17T04:13:14.553Z,3.50
2022-11-17T04:15:59.519Z,3.49
2022-11-17T04:18:27.980Z,3.49
2022-11-17T04:20:58.161Z,3.49
2022-11-17T04:23:27.060Z,3.49
2022-11-17T04:26:25.538Z,3.51
2022-11-17T04:28:53.669Z,3.53
2022-11-17T04:31:25.843Z,3.54
2022-11-17T04:33:55.149Z,3.55
2022-11-17T04:36:25.762Z,3.59
2022-11-17T04:38:55.089Z,3.60
2022-11-17T04:41:41.753Z,3.60
2022-11-17T04:44:11.645Z,3.61
2022-11-17T04:46:44.343Z,3.60
2022-11-17T04:49:12.987Z,3.63
2022-11-17T04:51:41.426Z,3.65
2022-11-17T04:54:10.892Z,3.67
2022-11-17T04:56:39.516Z,3.68
2022-11-17T04:59:08.246Z,3.69
2022-11-17T05:01:36.551Z,3.70
2022-11-17T05:04:07.936Z,3.72
2022-11-17T05:06:38.026Z,3.73
2022-11-17T05:09:07.624Z,3.76
2022-11-17T05:11:53.209Z,3.75
2022-11-17T05:14:22.855Z,3.76
2022-11-17T05:17:09.362Z,3.74
2022-11-17T05:19:41.894Z,3.71
2022-11-17T05:22:25.191Z,3.69
2022-11-17T05:24:53.410Z,3.67
2022-11-17T05:27:21.962Z,3.62
2022-11-17T05:29:50.152Z,3.59
2022-11-17T05:32:18.868Z,3.57
2022-11-17T05:34:48.456Z,3.56
2022-11-17T05:37:16.588Z,3.57
2022-11-17T05:39:44.746Z,3.54
2022-11-17T05:42:12.903Z,3.55
2022-11-17T05:44:41.039Z,3.54
2022-11-17T05:47:09.159Z,3.53
2022-11-17T05:49:37.547Z,3.51
2022-11-17T05:52:07.114Z,3.50
2022-11-17T05:54:35.238Z,3.50
2022-11-17T05:57:05.675Z,3.51
2022-11-17T05:59:37.182Z,3.51
2022-11-17T06:02:08.710Z,3.51
2022-11-17T06:04:36.894Z,3.48
2022-11-17T06:07:06.732Z,3.51
2022-11-17T06:09:37.668Z,3.50
2022-11-17T06:12:06.708Z,3.53
2022-11-17T06:14:35.532Z,3.55
2022-11-17T06:17:07.955Z,3.59
2022-11-17T06:19:37.993Z,3.60
2022-11-17T06:22:12.610Z,3.62
2022-11-17T06:24:42.788Z,3.62
2022-11-17T06:27:11.442Z,3.62
2022-11-17T06:29:43.882Z,3.61
2022-11-17T06:32:16.971Z,3.58
2022-11-17T06:34:51.918Z,3.57
2022-11-17T06:37:24.971Z,3.57
2022-11-17T06:39:53.246Z,3.58
2022-11-17T06:42:41.862Z,3.57
2022-11-17T06:45:10.885Z,3.55
2022-11-17T06:47:39.040Z,3.55
2022-11-17T06:50:07.884Z,3.51
2022-11-17T06:52:37.363Z,3.51
2022-11-17T06:55:06.104Z,3.49
2022-11-17T06:57:34.226Z,3.49
2022-11-17T07:00:02.352Z,3.48
2022-11-17T07:02:32.398Z,3.44
2022-11-17T07:05:00.692Z,3.44
2022-11-17T07:07:28.917Z,3.46
2022-11-17T07:09:58.492Z,3.44
2022-11-17T07:12:26.651Z,3.44
2022-11-17T07:14:54.765Z,3.45
2022-11-17T07:17:22.883Z,3.48
2022-11-17T07:19:50.999Z,3.46
2022-11-17T07:22:19.107Z,3.47
2022-11-17T07:24:47.238Z,3.49
2022-11-17T07:27:16.778Z,3.53
2022-11-17T07:29:45.003Z,3.57
2022-11-17T07:32:14.869Z,3.57
2022-11-17T07:34:42.985Z,3.59
2022-11-17T07:37:11.124Z,3.61
2022-11-17T07:39:39.256Z,3.61
2022-11-17T07:42:07.728Z,3.62
2022-11-17T07:44:37.233Z,3.62
2022-11-17T07:47:05.451Z,3.63
2022-11-17T07:49:33.585Z,3.62
2022-11-17T07:52:02.054Z,3.66
2022-11-17T07:54:30.190Z,3.68
2022-11-17T07:56:58.311Z,3.69
2022-11-17T07:59:26.485Z,3.71
2022-11-17T08:01:56.056Z,3.71
2022-11-17T08:04:24.181Z,3.72
2022-11-17T08:06:52.383Z,3.72
2022-11-17T08:09:20.514Z,3.72
2022-11-17T08:11:48.638Z,3.71
2022-11-17T08:14:16.752Z,3.69
2022-11-17T08:16:44.962Z,3.70
2022-11-17T08:19:14.788Z,3.72
2022-11-17T08:21:42.941Z,3.73
2022-11-17T08:24:13.506Z,3.75
2022-11-17T08:26:41.649Z,3.74
2022-11-17T08:29:09.938Z,3.75
2022-11-17T08:31:38.733Z,3.79
2022-11-17T08:34:06.832Z,3.82
2022-11-17T08:36:36.359Z,3.84
2022-11-17T08:39:04.726Z,3.89
2022-11-17T08:41:32.937Z,3.90
2022-11-17T08:44:01.087Z,3.92
2022-11-17T08:46:29.228Z,3.98
2022-11-17T08:48:57.487Z,3.96
2022-11-17T08:51:27.228Z,3.94
2022-11-17T08:53:57.440Z,3.95
2022-11-17T08:56:25.565Z,3.98
2022-11-17T08:58:53.727Z,3.99
2022-11-17T09:01:21.895Z,3.99
2022-11-17T09:03:50.063Z,4.00
2022-11-17T09:06:19.995Z,4.03
2022-11-17T09:08:48.738Z,4.05
2022-11-17T09:11:18.322Z,4.07
2022-11-17T09:13:47.046Z,4.09
2022-11-17T09:16:16.178Z,4.10
2022-11-17T09:18:44.901Z,4.12
2022-11-17T09:21:15.123Z,4.16
2022-11-17T09:23:43.744Z,4.15
2022-11-17T09:26:14.036Z,4.16
2022-11-17T09:28:44.109Z,4.20
2022-11-17T09:31:14.382Z,4.19
2022-11-17T09:33:43.699Z,4.22
2022-11-17T09:36:12.924Z,4.24
2022-11-17T09:38:41.228Z,4.24
2022-11-17T09:41:19.488Z,4.27
2022-11-17T09:43:53.225Z,4.31
2022-11-17T09:46:26.116Z,4.34
2022-11-17T09:48:58.592Z,4.35
2022-11-17T09:51:27.836Z,4.36
2022-11-17T09:54:00.530Z,4.38
2022-11-17T09:56:28.736Z,4.40
2022-11-17T09:59:04.265Z,4.39
2022-11-17T10:01:32.639Z,4.36
2022-11-17T10:04:01.475Z,4.37
2022-11-17T10:06:31.323Z,4.37
2022-11-17T10:09:02.883Z,4.36
2022-11-17T10:11:32.623Z,4.37
2022-11-17T10:14:11.779Z,4.39
2022-11-17T10:16:41.794Z,4.38
2022-11-17T10:19:16.495Z,4.39
2022-11-17T10:21:45.219Z,4.36
2022-11-17T10:24:33.417Z,4.39
2022-11-17T10:27:01.837Z,4.41
2022-11-17T10:29:31.469Z,4.40
2022-11-17T10:31:59.831Z,4.40
2022-11-17T10:34:38.809Z,4.39
2022-11-17T10:37:24.637Z,4.39
2022-11-17T10:40:04.421Z,4.41
2022-11-17T10:42:32.551Z,4.42
2022-11-17T10:45:02.691Z,4.42
2022-11-17T10:47:34.395Z,4.42
2022-11-17T10:50:24.476Z,4.43
2022-11-17T10:52:54.020Z,4.39
2022-11-17T10:55:29.002Z,4.38
2022-11-17T10:58:00.829Z,4.37
2022-11-17T11:00:35.465Z,4.37
2022-11-17T11:03:15.664Z,4.38
2022-11-17T11:06:00.052Z,4.37
2022-11-17T11:08:33.214Z,4.34
2022-11-17T11:11:03.160Z,4.34
2022-11-17T11:13:35.224Z,4.35
2022-11-17T11:16:04.893Z,4.35
2022-11-17T11:18:33.083Z,4.35
2022-11-17T11:21:09.924Z,4.36
2022-11-17T11:23:50.154Z,4.35
2022-11-17T11:26:30.517Z,4.34
2022-11-17T11:29:14.411Z,4.34
2022-11-17T11:31:52.826Z,4.33
2022-11-17T11:34:34.723Z,4.32
2022-11-17T11:37:09.204Z,4.32
2022-11-17T11:39:45.663Z,4.31
2022-11-17T11:42:42.379Z,4.33
2022-11-17T11:45:37.740Z,4.33
2022-11-17T11:48:15.270Z,4.35
2022-11-17T11:50:51.978Z,4.37
2022-11-17T11:53:42.718Z,4.40
2022-11-17T11:56:18.391Z,4.42
2022-11-17T11:58:52.335Z,4.43
2022-11-17T12:01:22.199Z,4.47
2022-11-17T12:03:57.990Z,4.49
2022-11-17T12:06:43.587Z,4.49
2022-11-17T12:09:45.048Z,4.53
2022-11-17T12:12:16.727Z,4.55
2022-11-17T12:15:13.635Z,4.56
2022-11-17T12:17:58.568Z,4.57
2022-11-17T12:21:03.084Z,4.57
2022-11-17T12:23:50.400Z,4.58
2022-11-17T12:26:24.352Z,4.57
2022-11-17T12:29:16.888Z,4.57
2022-11-17T12:31:46.404Z,4.56
2022-11-17T12:34:24.740Z,4.56
2022-11-17T12:37:26.126Z,4.55
2022-11-17T12:40:01.596Z,4.57
2022-11-17T12:42:30.614Z,4.55
2022-11-17T12:45:16.356Z,4.52
2022-11-17T12:47:59.127Z,4.52
2022-11-17T12:51:01.881Z,4.49
2022-11-17T12:53:57.736Z,4.49
2022-11-17T12:56:41.031Z,4.48
2022-11-17T12:59:53.573Z,4.48
2022-11-17T13:02:48.906Z,4.48
2022-11-17T13:05:19.875Z,4.49
2022-11-17T13:07:48.079Z,4.48
2022-11-17T13:10:27.983Z,4.47
2022-11-17T13:13:12.987Z,4.48
2022-11-17T13:15:43.324Z,4.48
2022-11-17T13:18:16.803Z,4.51
2022-11-17T13:20:47.720Z,4.49
2022-11-17T13:23:20.387Z,4.49
2022-11-17T13:25:48.583Z,4.50
2022-11-17T13:28:32.216Z,4.50
2022-11-17T13:31:01.621Z,4.49
2022-11-17T13:33:30.942Z,4.49
2022-11-17T13:36:17.223Z,4.53
2022-11-17T13:38:49.937Z,4.55
2022-11-17T13:41:18.579Z,4.56
2022-11-17T13:43:48.744Z,4.57
2022-11-17T13:46:17.105Z,4.55
2022-11-17T13:48:46.245Z,4.54
2022-11-17T13:51:29.305Z,4.54
2022-11-17T13:54:00.868Z,4.55
2022-11-17T13:56:35.325Z,4.54
2022-11-17T13:59:07.487Z,4.54
2022-11-17T14:01:35.732Z,4.54
2022-11-17T14:04:20.628Z,4.54
2022-11-17T14:07:00.647Z,4.51
2022-11-17T14:09:30.787Z,4.53
2022-11-17T14:11:59.193Z,4.53
2022-11-17T14:14:36.961Z,4.54
2022-11-17T14:17:13.357Z,4.54
2022-11-17T14:19:41.978Z,4.50
2022-11-17T14:22:30.892Z,4.51
2022-11-17T14:24:59.969Z,4.50
2022-11-17T14:27:39.184Z,4.49
2022-11-17T14:30:14.433Z,4.47
2022-11-17T14:32:42.549Z,4.46
2022-11-17T14:35:13.875Z,4.44
2022-11-17T14:37:42.598Z,4.44
2022-11-17T14:40:14.719Z,4.47
2022-11-17T14:42:42.975Z,4.44
2022-11-17T14:45:15.696Z,4.44
2022-11-17T14:47:44.679Z,4.42
2022-11-17T14:50:14.828Z,4.42
2022-11-17T14:52:43.378Z,4.43
2022-11-17T14:55:11.974Z,4.43
2022-11-17T14:57:40.186Z,4.42
2022-11-17T15:00:13.521Z,4.43
2022-11-17T15:02:47.355Z,4.41
2022-11-17T15:05:15.747Z,4.40
2022-11-17T15:07:43.959Z,4.39
2022-11-17T15:10:12.093Z,4.37
2022-11-17T15:12:40.246Z,4.36
2022-11-17T15:15:09.355Z,4.35
2022-11-17T15:17:37.529Z,4.35
2022-11-17T15:20:09.271Z,4.36
2022-11-17T15:22:37.402Z,4.36
2022-11-17T15:25:06.188Z,4.35
2022-11-17T15:27:34.330Z,4.35
2022-11-17T15:30:02.577Z,4.34
2022-11-17T15:32:31.109Z,4.35
2022-11-17T15:34:59.252Z,4.36
2022-11-17T15:37:28.811Z,4.36
2022-11-17T15:39:56.952Z,4.34
2022-11-17T15:42:25.147Z,4.33
2022-11-17T15:44:53.283Z,4.33
2022-11-17T15:47:21.399Z,4.34
2022-11-17T15:49:49.532Z,4.33
2022-11-17T15:52:30.128Z,4.33
2022-11-17T15:55:07.960Z,4.32
2022-11-17T15:57:36.089Z,4.31
2022-11-17T16:00:06.796Z,4.28
2022-11-17T16:02:34.998Z,4.27
2022-11-17T16:05:03.112Z,4.28
2022-11-17T16:07:31.306Z,4.27
2022-11-17T16:09:59.651Z,4.26
2022-11-17T16:12:29.223Z,4.25
2022-11-17T16:14:57.483Z,4.25
2022-11-17T16:17:25.696Z,4.25
2022-11-17T16:19:53.798Z,4.24
2022-11-17T16:22:22.012Z,4.25
2022-11-17T16:24:50.130Z,4.24
2022-11-17T16:27:18.265Z,4.23
2022-11-17T16:29:47.763Z,4.24
2022-11-17T16:32:15.945Z,4.22
2022-11-17T16:34:48.890Z,4.19
2022-11-17T16:37:17.461Z,4.16
2022-11-17T16:39:45.643Z,4.10
2022-11-17T16:42:13.931Z,4.06
2022-11-17T16:44:42.182Z,4.04
2022-11-17T16:47:11.758Z,4.02
2022-11-17T16:49:39.916Z,3.95
2022-11-17T16:52:08.041Z,3.90
2022-11-17T16:54:36.189Z,3.86
2022-11-17T16:57:04.354Z,3.81
2022-11-17T16:59:32.507Z,3.75
2022-11-17T17:02:00.635Z,3.71
2022-11-17T17:04:31.727Z,3.67
2022-11-17T17:06:59.881Z,3.63
2022-11-17T17:09:30.777Z,3.58
2022-11-17T17:11:59.036Z,3.54
2022-11-17T17:14:27.158Z,3.52
2022-11-17T17:16:55.327Z,3.50
2022-11-17T17:19:24.391Z,3.50
2022-11-17T17:21:53.983Z,3.50
2022-11-17T17:24:22.385Z,3.49
2022-11-17T17:26:50.593Z,3.48
2022-11-17T17:29:18.971Z,3.47
2022-11-17T17:31:47.260Z,3.45
2022-11-17T17:34:15.399Z,3.43
2022-11-17T17:36:43.856Z,3.41
2022-11-17T17:39:16.566Z,3.40
2022-11-17T17:41:45.915Z,3.37
2022-11-17T17:46:44.992Z,3.35
2022-11-17T17:49:13.686Z,3.33
2022-11-17T17:51:44.213Z,3.32
2022-11-17T17:54:17.647Z,3.31
2022-11-17T17:56:45.982Z,3.30
2022-11-17T17:59:15.779Z,3.29
2022-11-17T18:01:46.046Z,3.27
2022-11-17T18:04:16.103Z,3.24
2022-11-17T18:06:46.048Z,3.25
2022-11-17T18:09:19.039Z,3.25
2022-11-17T18:11:49.864Z,3.25
2022-11-17T18:14:20.489Z,3.24
2022-11-17T18:16:48.663Z,3.24
2022-11-17T18:19:18.218Z,3.24
2022-11-17T18:21:46.627Z,3.25
2022-11-17T18:24:16.206Z,3.25
2022-11-17T18:26:44.399Z,3.24
2022-11-17T18:29:15.246Z,3.22
2022-11-17T18:31:46.521Z,3.22
2022-11-17T18:34:16.531Z,3.22
2022-11-17T18:36:44.709Z,3.21
2022-11-17T18:39:12.855Z,3.20
2022-11-17T18:41:42.413Z,3.20
2022-11-17T18:44:13.132Z,3.18
2022-11-17T18:46:41.314Z,3.16
2022-11-17T18:49:09.507Z,3.15
2022-11-17T18:51:37.657Z,3.15
2022-11-17T18:54:06.030Z,3.13
2022-11-17T18:56:35.488Z,3.13
2022-11-17T18:59:11.015Z,3.12
2022-11-17T19:01:40.456Z,3.12
2022-11-17T19:04:08.658Z,3.11
2022-11-17T19:06:37.346Z,3.10
2022-11-17T19:09:06.030Z,3.10
2022-11-17T19:11:34.633Z,3.08
2022-11-17T19:14:05.317Z,3.07
2022-11-17T19:16:42.574Z,3.06
2022-11-17T19:19:13.124Z,3.05
2022-11-17T19:21:41.860Z,3.06
2022-11-17T19:24:10.148Z,3.05
2022-11-17T19:26:38.428Z,3.05
2022-11-17T19:29:16.050Z,3.06
2022-11-17T19:31:44.970Z,3.08
2022-11-17T19:34:13.382Z,3.08
2022-11-17T19:36:41.493Z,3.09
2022-11-17T19:39:09.614Z,3.10
2022-11-17T19:41:39.658Z,3.10
2022-11-17T19:44:09.923Z,3.10
2022-11-17T19:46:38.954Z,3.11
2022-11-17T19:49:07.766Z,3.13
2022-11-17T19:51:37.536Z,3.14
2022-11-17T19:54:07.378Z,3.17
2022-11-17T19:56:36.364Z,3.16
2022-11-17T19:59:04.775Z,3.16
2022-11-17T20:01:34.575Z,3.17
2022-11-17T20:04:03.188Z,3.18
2022-11-17T20:06:35.332Z,3.18
2022-11-17T20:09:08.032Z,3.19
2022-11-17T20:11:36.360Z,3.20
2022-11-17T20:14:04.761Z,3.21
2022-11-17T20:16:34.542Z,3.22
2022-11-17T20:19:03.159Z,3.21
2022-11-17T20:21:31.885Z,3.20
2022-11-17T20:24:01.149Z,3.19
2022-11-17T20:26:31.713Z,3.17
2022-11-17T20:29:00.696Z,3.16
2022-11-17T20:31:30.558Z,3.14
2022-11-17T20:34:01.348Z,3.15
2022-11-17T20:36:31.019Z,3.14
2022-11-17T20:39:01.299Z,3.13
2022-11-17T20:41:29.729Z,3.13
2022-11-17T20:43:59.881Z,3.13
2022-11-17T20:46:28.062Z,3.13
2022-11-17T20:48:56.227Z,3.12
2022-11-17T20:51:26.945Z,3.11
2022-11-17T20:53:55.218Z,3.10
2022-11-17T20:56:23.656Z,3.11
2022-11-17T20:58:51.816Z,3.09
2022-11-17T21:01:22.629Z,3.06
2022-11-17T21:03:50.944Z,3.06
2022-11-17T21:06:19.792Z,3.06
2022-11-17T21:08:49.430Z,3.06
2022-11-17T21:11:32.635Z,3.05
2022-11-17T21:14:01.355Z,3.05
2022-11-17T21:16:29.541Z,3.04
2022-11-17T21:18:57.678Z,3.05
2022-11-17T21:21:25.937Z,3.06
2022-11-17T21:23:56.222Z,3.07
2022-11-17T21:26:24.816Z,3.06
2022-11-17T21:28:53.259Z,3.06
2022-11-17T21:31:23.535Z,3.06
2022-11-17T21:33:54.531Z,3.06
2022-11-17T21:36:24.053Z,3.05
2022-11-17T21:38:52.421Z,3.05
2022-11-17T21:41:23.708Z,3.04
2022-11-17T21:43:53.036Z,3.04
2022-11-17T21:46:22.668Z,3.03
2022-11-17T21:48:51.953Z,3.02
2022-11-17T21:51:21.187Z,3.02
2022-11-17T21:53:52.816Z,3.04
2022-11-17T21:56:25.613Z,3.02
2022-11-17T21:58:56.753Z,3.02
2022-11-17T22:01:25.686Z,3.02
2022-11-17T22:03:54.122Z,3.02
2022-11-17T22:06:23.866Z,3.03
2022-11-17T22:08:52.535Z,3.04
2022-11-17T22:11:36.525Z,3.07
2022-11-17T22:14:10.699Z,3.07
2022-11-17T22:16:40.310Z,3.10
2022-11-17T22:19:09.434Z,3.09
2022-11-17T22:21:38.700Z,3.11
2022-11-17T22:24:09.200Z,3.11
2022-11-17T22:26:43.801Z,3.11
2022-11-17T22:29:13.929Z,3.12
2022-11-17T22:31:42.570Z,3.11
2022-11-17T22:34:10.916Z,3.12
2022-11-17T22:36:39.148Z,3.12
2022-11-17T22:39:07.556Z,3.11
2022-11-17T22:41:36.084Z,3.11
2022-11-17T22:44:06.298Z,3.12
2022-11-17T22:46:34.826Z,3.12
2022-11-17T22:49:03.227Z,3.12
2022-11-17T22:51:49.989Z,3.13
2022-11-17T22:54:18.123Z,3.15
2022-11-17T22:56:46.333Z,3.14
2022-11-17T22:59:16.532Z,3.13
2022-11-17T23:01:44.801Z,3.14
2022-11-17T23:04:14.024Z,3.14
2022-11-17T23:06:42.219Z,3.12
2022-11-17T23:09:10.560Z,3.13
2022-11-17T23:11:38.820Z,3.12
2022-11-17T23:14:07.832Z,3.12
2022-11-17T23:16:37.936Z,3.13
2022-11-17T23:19:06.606Z,3.11
2022-11-17T23:21:34.740Z,3.12
2022-11-17T23:24:03.583Z,3.09
2022-11-17T23:26:31.721Z,3.10
2022-11-17T23:28:59.848Z,3.10
2022-11-17T23:31:28.438Z,3.10
2022-11-17T23:33:57.987Z,3.09
2022-11-17T23:36:26.129Z,3.08
2022-11-17T23:38:56.291Z,3.08
2022-11-17T23:41:24.519Z,3.07
2022-11-17T23:43:54.161Z,3.07
2022-11-17T23:46:23.623Z,3.09
2022-11-17T23:48:52.033Z,3.10
2022-11-17T23:51:23.256Z,3.11
2022-11-17T23:53:51.584Z,3.12
2022-11-17T23:56:20.479Z,3.10
2022-11-17T23:58:48.695Z,3.10
